sensor_id;sensor_type;location;lat;lon;timestamp;P1;durP1;ratioP1;P2;durP2;ratioP2
7080;SDS011;3582;51.506;11.948;2023-04-15T00:01:24;12.63;;;10.63;;
7080;SDS011;3582;51.506;11.948;2023-04-15T00:03:51;11.52;;;10.27;;
7080;SDS011;3582;51.506;11.948;2023-04-15T00:06:18;14.30;;;10.57;;
7080;SDS011;3582;51.506;11.948;2023-04-15T00:08:44;11.77;;;10.35;;
7080;SDS011;3582;51.506;11.948;2023-04-15T00:11:10;15.55;;;12.68;;
7080;SDS011;3582;51.506;11.948;2023-04-15T00:13:37;16.13;;;13.13;;
7080;SDS011;3582;51.506;11.948;2023-04-15T00:16:03;15.80;;;13.45;;
7080;SDS011;3582;51.506;11.948;2023-04-15T00:18:30;15.82;;;14.15;;
7080;SDS011;3582;51.506;11.948;2023-04-15T00:20:56;16.15;;;13.68;;
7080;SDS011;3582;51.506;11.948;2023-04-15T00:23:22;18.27;;;14.75;;
7080;SDS011;3582;51.506;11.948;2023-04-15T00:25:48;17.70;;;14.47;;
7080;SDS011;3582;51.506;11.948;2023-04-15T00:28:15;17.95;;;14.98;;
7080;SDS011;3582;51.506;11.948;2023-04-15T00:30:41;19.55;;;15.45;;
7080;SDS011;3582;51.506;11.948;2023-04-15T00:33:07;20.10;;;13.50;;
7080;SDS011;3582;51.506;11.948;2023-04-15T00:35:33;20.67;;;14.35;;
7080;SDS011;3582;51.506;11.948;2023-04-15T00:38:00;21.05;;;14.95;;
7080;SDS011;3582;51.506;11.948;2023-04-15T00:40:26;19.27;;;15.82;;
7080;SDS011;3582;51.506;11.948;2023-04-15T00:42:52;17.83;;;15.07;;
7080;SDS011;3582;51.506;11.948;2023-04-15T00:45:19;17.55;;;13.50;;
7080;SDS011;3582;51.506;11.948;2023-04-15T00:47:44;18.63;;;13.93;;
7080;SDS011;3582;51.506;11.948;2023-04-15T00:50:11;20.07;;;14.60;;
7080;SDS011;3582;51.506;11.948;2023-04-15T00:52:37;19.35;;;14.30;;
7080;SDS011;3582;51.506;11.948;2023-04-15T00:55:03;14.95;;;12.32;;
7080;SDS011;3582;51.506;11.948;2023-04-15T00:57:29;18.55;;;15.18;;
7080;SDS011;3582;51.506;11.948;2023-04-15T00:59:56;19.80;;;15.70;;
7080;SDS011;3582;51.506;11.948;2023-04-15T01:02:23;20.60;;;16.75;;
7080;SDS011;3582;51.506;11.948;2023-04-15T01:04:49;21.95;;;16.45;;
7080;SDS011;3582;51.506;11.948;2023-04-15T01:07:15;24.70;;;17.13;;
7080;SDS011;3582;51.506;11.948;2023-04-15T01:09:41;24.20;;;18.05;;
7080;SDS011;3582;51.506;11.948;2023-04-15T01:12:09;19.83;;;16.92;;
7080;SDS011;3582;51.506;11.948;2023-04-15T01:14:36;21.85;;;16.30;;
7080;SDS011;3582;51.506;11.948;2023-04-15T01:17:02;19.07;;;14.37;;
7080;SDS011;3582;51.506;11.948;2023-04-15T01:19:28;17.73;;;14.97;;
7080;SDS011;3582;51.506;11.948;2023-04-15T01:21:54;19.58;;;15.55;;
7080;SDS011;3582;51.506;11.948;2023-04-15T01:24:21;19.15;;;15.68;;
7080;SDS011;3582;51.506;11.948;2023-04-15T01:26:47;21.73;;;17.63;;
7080;SDS011;3582;51.506;11.948;2023-04-15T01:29:14;18.40;;;14.23;;
7080;SDS011;3582;51.506;11.948;2023-04-15T01:31:40;21.20;;;15.80;;
7080;SDS011;3582;51.506;11.948;2023-04-15T01:34:06;20.90;;;16.83;;
7080;SDS011;3582;51.506;11.948;2023-04-15T01:36:32;21.30;;;16.50;;
7080;SDS011;3582;51.506;11.948;2023-04-15T01:38:58;17.77;;;13.27;;
7080;SDS011;3582;51.506;11.948;2023-04-15T01:41:27;20.60;;;13.60;;
7080;SDS011;3582;51.506;11.948;2023-04-15T01:43:54;16.33;;;13.23;;
7080;SDS011;3582;51.506;11.948;2023-04-15T01:46:20;16.48;;;12.57;;
7080;SDS011;3582;51.506;11.948;2023-04-15T01:48:46;17.83;;;13.80;;
7080;SDS011;3582;51.506;11.948;2023-04-15T01:51:12;18.20;;;13.17;;
7080;SDS011;3582;51.506;11.948;2023-04-15T01:53:38;14.73;;;12.30;;
7080;SDS011;3582;51.506;11.948;2023-04-15T01:56:04;19.30;;;12.75;;
7080;SDS011;3582;51.506;11.948;2023-04-15T01:58:31;17.85;;;12.25;;
7080;SDS011;3582;51.506;11.948;2023-04-15T02:00:57;16.97;;;11.80;;
7080;SDS011;3582;51.506;11.948;2023-04-15T02:03:23;13.73;;;11.83;;
7080;SDS011;3582;51.506;11.948;2023-04-15T02:05:49;16.00;;;12.07;;
7080;SDS011;3582;51.506;11.948;2023-04-15T02:08:16;15.80;;;12.20;;
7080;SDS011;3582;51.506;11.948;2023-04-15T02:10:41;13.20;;;10.80;;
7080;SDS011;3582;51.506;11.948;2023-04-15T02:13:07;18.60;;;13.37;;
7080;SDS011;3582;51.506;11.948;2023-04-15T02:15:34;17.80;;;14.10;;
7080;SDS011;3582;51.506;11.948;2023-04-15T02:18:01;18.83;;;13.27;;
7080;SDS011;3582;51.506;11.948;2023-04-15T02:20:27;17.17;;;13.70;;
7080;SDS011;3582;51.506;11.948;2023-04-15T02:22:54;15.18;;;12.70;;
7080;SDS011;3582;51.506;11.948;2023-04-15T02:25:21;15.55;;;12.98;;
7080;SDS011;3582;51.506;11.948;2023-04-15T02:27:47;23.92;;;14.07;;
7080;SDS011;3582;51.506;11.948;2023-04-15T02:30:13;15.82;;;12.23;;
7080;SDS011;3582;51.506;11.948;2023-04-15T02:32:39;16.02;;;11.18;;
7080;SDS011;3582;51.506;11.948;2023-04-15T02:35:07;15.63;;;11.10;;
7080;SDS011;3582;51.506;11.948;2023-04-15T02:37:36;11.93;;;9.68;;
7080;SDS011;3582;51.506;11.948;2023-04-15T02:40:09;11.98;;;9.80;;
7080;SDS011;3582;51.506;11.948;2023-04-15T02:42:39;11.85;;;9.35;;
7080;SDS011;3582;51.506;11.948;2023-04-15T02:45:05;14.15;;;10.68;;
7080;SDS011;3582;51.506;11.948;2023-04-15T02:47:32;10.75;;;8.20;;
7080;SDS011;3582;51.506;11.948;2023-04-15T02:49:58;11.93;;;10.18;;
7080;SDS011;3582;51.506;11.948;2023-04-15T02:52:25;11.70;;;8.95;;
7080;SDS011;3582;51.506;11.948;2023-04-15T02:54:51;13.33;;;10.27;;
7080;SDS011;3582;51.506;11.948;2023-04-15T02:57:21;11.88;;;9.25;;
7080;SDS011;3582;51.506;11.948;2023-04-15T02:59:47;12.47;;;9.23;;
7080;SDS011;3582;51.506;11.948;2023-04-15T03:02:13;12.80;;;11.47;;
7080;SDS011;3582;51.506;11.948;2023-04-15T03:04:39;12.60;;;9.60;;
7080;SDS011;3582;51.506;11.948;2023-04-15T03:07:05;11.73;;;9.73;;
7080;SDS011;3582;51.506;11.948;2023-04-15T03:09:31;12.47;;;9.40;;
7080;SDS011;3582;51.506;11.948;2023-04-15T03:11:57;13.97;;;9.67;;
7080;SDS011;3582;51.506;11.948;2023-04-15T03:14:23;12.20;;;8.63;;
7080;SDS011;3582;51.506;11.948;2023-04-15T03:16:49;12.68;;;9.55;;
7080;SDS011;3582;51.506;11.948;2023-04-15T03:19:16;10.93;;;8.20;;
7080;SDS011;3582;51.506;11.948;2023-04-15T03:21:42;12.45;;;10.38;;
7080;SDS011;3582;51.506;11.948;2023-04-15T03:24:07;13.37;;;9.73;;
7080;SDS011;3582;51.506;11.948;2023-04-15T03:26:33;16.50;;;11.10;;
7080;SDS011;3582;51.506;11.948;2023-04-15T03:29:00;10.80;;;8.95;;
7080;SDS011;3582;51.506;11.948;2023-04-15T03:31:26;11.27;;;10.17;;
7080;SDS011;3582;51.506;11.948;2023-04-15T03:33:52;13.33;;;9.77;;
7080;SDS011;3582;51.506;11.948;2023-04-15T03:36:18;14.37;;;10.40;;
7080;SDS011;3582;51.506;11.948;2023-04-15T03:38:43;10.43;;;8.17;;
7080;SDS011;3582;51.506;11.948;2023-04-15T03:41:09;11.02;;;8.35;;
7080;SDS011;3582;51.506;11.948;2023-04-15T03:43:36;12.60;;;9.55;;
7080;SDS011;3582;51.506;11.948;2023-04-15T03:46:01;12.83;;;9.03;;
7080;SDS011;3582;51.506;11.948;2023-04-15T03:48:28;12.45;;;8.80;;
7080;SDS011;3582;51.506;11.948;2023-04-15T03:50:54;10.87;;;8.47;;
7080;SDS011;3582;51.506;11.948;2023-04-15T03:53:20;12.32;;;9.07;;
7080;SDS011;3582;51.506;11.948;2023-04-15T03:55:46;13.07;;;10.38;;
7080;SDS011;3582;51.506;11.948;2023-04-15T03:58:12;12.00;;;8.70;;
7080;SDS011;3582;51.506;11.948;2023-04-15T04:00:38;12.47;;;9.67;;
7080;SDS011;3582;51.506;11.948;2023-04-15T04:03:05;11.20;;;9.52;;
7080;SDS011;3582;51.506;11.948;2023-04-15T04:05:31;11.02;;;8.25;;
7080;SDS011;3582;51.506;11.948;2023-04-15T04:07:57;13.37;;;10.10;;
7080;SDS011;3582;51.506;11.948;2023-04-15T04:10:23;12.97;;;10.47;;
7080;SDS011;3582;51.506;11.948;2023-04-15T04:12:49;10.60;;;8.00;;
7080;SDS011;3582;51.506;11.948;2023-04-15T04:15:15;13.02;;;9.40;;
7080;SDS011;3582;51.506;11.948;2023-04-15T04:17:41;10.80;;;9.17;;
7080;SDS011;3582;51.506;11.948;2023-04-15T04:20:07;12.47;;;9.93;;
7080;SDS011;3582;51.506;11.948;2023-04-15T04:22:37;12.68;;;10.77;;
7080;SDS011;3582;51.506;11.948;2023-04-15T04:25:07;14.57;;;11.23;;
7080;SDS011;3582;51.506;11.948;2023-04-15T04:27:34;16.15;;;10.10;;
7080;SDS011;3582;51.506;11.948;2023-04-15T04:30:00;11.87;;;10.57;;
7080;SDS011;3582;51.506;11.948;2023-04-15T04:32:26;14.32;;;10.90;;
7080;SDS011;3582;51.506;11.948;2023-04-15T04:34:51;18.53;;;13.57;;
7080;SDS011;3582;51.506;11.948;2023-04-15T04:37:17;15.80;;;11.50;;
7080;SDS011;3582;51.506;11.948;2023-04-15T04:39:43;18.77;;;14.10;;
7080;SDS011;3582;51.506;11.948;2023-04-15T04:42:09;18.93;;;13.20;;
7080;SDS011;3582;51.506;11.948;2023-04-15T04:44:35;17.57;;;12.67;;
7080;SDS011;3582;51.506;11.948;2023-04-15T04:47:01;23.80;;;15.57;;
7080;SDS011;3582;51.506;11.948;2023-04-15T04:49:27;21.47;;;14.33;;
7080;SDS011;3582;51.506;11.948;2023-04-15T04:51:53;19.87;;;14.60;;
7080;SDS011;3582;51.506;11.948;2023-04-15T04:54:19;19.90;;;12.90;;
7080;SDS011;3582;51.506;11.948;2023-04-15T04:56:45;22.70;;;14.33;;
7080;SDS011;3582;51.506;11.948;2023-04-15T04:59:11;21.10;;;15.03;;
7080;SDS011;3582;51.506;11.948;2023-04-15T05:01:37;19.70;;;14.63;;
7080;SDS011;3582;51.506;11.948;2023-04-15T05:04:03;20.53;;;14.53;;
7080;SDS011;3582;51.506;11.948;2023-04-15T05:06:31;21.80;;;15.15;;
7080;SDS011;3582;51.506;11.948;2023-04-15T05:08:57;18.60;;;13.93;;
7080;SDS011;3582;51.506;11.948;2023-04-15T05:11:23;18.00;;;13.53;;
7080;SDS011;3582;51.506;11.948;2023-04-15T05:13:49;21.23;;;15.40;;
7080;SDS011;3582;51.506;11.948;2023-04-15T05:16:15;21.23;;;15.90;;
7080;SDS011;3582;51.506;11.948;2023-04-15T05:18:41;20.63;;;14.00;;
7080;SDS011;3582;51.506;11.948;2023-04-15T05:21:07;19.60;;;15.30;;
7080;SDS011;3582;51.506;11.948;2023-04-15T05:23:33;18.92;;;14.45;;
7080;SDS011;3582;51.506;11.948;2023-04-15T05:25:59;13.80;;;12.17;;
7080;SDS011;3582;51.506;11.948;2023-04-15T05:28:25;17.15;;;12.75;;
7080;SDS011;3582;51.506;11.948;2023-04-15T05:30:51;17.27;;;12.97;;
7080;SDS011;3582;51.506;11.948;2023-04-15T05:33:17;15.85;;;11.45;;
7080;SDS011;3582;51.506;11.948;2023-04-15T05:35:43;18.33;;;14.03;;
7080;SDS011;3582;51.506;11.948;2023-04-15T05:38:09;13.13;;;10.43;;
7080;SDS011;3582;51.506;11.948;2023-04-15T05:40:35;19.00;;;14.38;;
7080;SDS011;3582;51.506;11.948;2023-04-15T05:43:01;18.27;;;13.00;;
7080;SDS011;3582;51.506;11.948;2023-04-15T05:45:27;21.03;;;12.90;;
7080;SDS011;3582;51.506;11.948;2023-04-15T05:47:53;16.35;;;12.20;;
7080;SDS011;3582;51.506;11.948;2023-04-15T05:50:19;19.40;;;13.10;;
7080;SDS011;3582;51.506;11.948;2023-04-15T05:52:45;14.53;;;11.83;;
7080;SDS011;3582;51.506;11.948;2023-04-15T05:55:11;15.50;;;11.53;;
7080;SDS011;3582;51.506;11.948;2023-04-15T05:57:38;10.95;;;9.82;;
7080;SDS011;3582;51.506;11.948;2023-04-15T06:00:04;14.27;;;10.48;;
7080;SDS011;3582;51.506;11.948;2023-04-15T06:02:30;16.95;;;11.82;;
7080;SDS011;3582;51.506;11.948;2023-04-15T06:04:56;16.00;;;10.37;;
7080;SDS011;3582;51.506;11.948;2023-04-15T06:07:23;16.25;;;11.02;;
7080;SDS011;3582;51.506;11.948;2023-04-15T06:09:49;14.70;;;10.33;;
7080;SDS011;3582;51.506;11.948;2023-04-15T06:12:15;12.63;;;9.90;;
7080;SDS011;3582;51.506;11.948;2023-04-15T06:14:41;13.77;;;11.80;;
7080;SDS011;3582;51.506;11.948;2023-04-15T06:17:07;15.05;;;11.02;;
7080;SDS011;3582;51.506;11.948;2023-04-15T06:19:33;13.50;;;10.87;;
7080;SDS011;3582;51.506;11.948;2023-04-15T06:22:00;14.70;;;9.85;;
7080;SDS011;3582;51.506;11.948;2023-04-15T06:24:26;12.55;;;10.73;;
7080;SDS011;3582;51.506;11.948;2023-04-15T06:26:52;15.57;;;11.97;;
7080;SDS011;3582;51.506;11.948;2023-04-15T06:29:18;22.17;;;12.97;;
7080;SDS011;3582;51.506;11.948;2023-04-15T06:31:46;22.50;;;14.75;;
7080;SDS011;3582;51.506;11.948;2023-04-15T06:34:12;19.92;;;15.27;;
7080;SDS011;3582;51.506;11.948;2023-04-15T06:36:38;19.50;;;14.37;;
7080;SDS011;3582;51.506;11.948;2023-04-15T06:39:03;21.17;;;14.30;;
7080;SDS011;3582;51.506;11.948;2023-04-15T06:41:29;26.00;;;15.67;;
7080;SDS011;3582;51.506;11.948;2023-04-15T06:44:01;20.57;;;14.50;;
7080;SDS011;3582;51.506;11.948;2023-04-15T06:46:27;20.58;;;14.73;;
7080;SDS011;3582;51.506;11.948;2023-04-15T06:48:53;16.90;;;13.30;;
7080;SDS011;3582;51.506;11.948;2023-04-15T06:51:19;18.00;;;13.70;;
7080;SDS011;3582;51.506;11.948;2023-04-15T06:53:45;18.67;;;13.30;;
7080;SDS011;3582;51.506;11.948;2023-04-15T06:56:11;16.60;;;13.40;;
7080;SDS011;3582;51.506;11.948;2023-04-15T06:58:37;17.30;;;12.63;;
7080;SDS011;3582;51.506;11.948;2023-04-15T07:01:03;21.70;;;13.20;;
7080;SDS011;3582;51.506;11.948;2023-04-15T07:03:29;16.80;;;12.88;;
7080;SDS011;3582;51.506;11.948;2023-04-15T07:05:55;24.45;;;16.30;;
7080;SDS011;3582;51.506;11.948;2023-04-15T07:08:21;18.40;;;14.30;;
7080;SDS011;3582;51.506;11.948;2023-04-15T07:10:48;20.40;;;13.75;;
7080;SDS011;3582;51.506;11.948;2023-04-15T07:13:14;20.57;;;15.60;;
7080;SDS011;3582;51.506;11.948;2023-04-15T07:15:39;17.90;;;13.67;;
7080;SDS011;3582;51.506;11.948;2023-04-15T07:18:05;16.00;;;13.20;;
7080;SDS011;3582;51.506;11.948;2023-04-15T07:20:31;25.00;;;13.80;;
7080;SDS011;3582;51.506;11.948;2023-04-15T07:22:57;20.20;;;14.17;;
7080;SDS011;3582;51.506;11.948;2023-04-15T07:25:23;19.10;;;13.87;;
7080;SDS011;3582;51.506;11.948;2023-04-15T07:27:49;23.00;;;14.47;;
7080;SDS011;3582;51.506;11.948;2023-04-15T07:30:16;19.42;;;15.07;;
7080;SDS011;3582;51.506;11.948;2023-04-15T07:32:42;18.52;;;15.02;;
7080;SDS011;3582;51.506;11.948;2023-04-15T07:35:08;21.03;;;14.97;;
7080;SDS011;3582;51.506;11.948;2023-04-15T07:37:35;18.02;;;14.20;;
7080;SDS011;3582;51.506;11.948;2023-04-15T07:40:01;17.83;;;14.67;;
7080;SDS011;3582;51.506;11.948;2023-04-15T07:42:28;16.58;;;13.40;;
7080;SDS011;3582;51.506;11.948;2023-04-15T07:44:55;17.70;;;12.50;;
7080;SDS011;3582;51.506;11.948;2023-04-15T07:47:21;13.35;;;11.48;;
7080;SDS011;3582;51.506;11.948;2023-04-15T07:49:47;12.83;;;11.40;;
7080;SDS011;3582;51.506;11.948;2023-04-15T07:52:13;17.15;;;12.45;;
7080;SDS011;3582;51.506;11.948;2023-04-15T07:54:39;16.30;;;11.17;;
7080;SDS011;3582;51.506;11.948;2023-04-15T07:57:05;15.47;;;12.53;;
7080;SDS011;3582;51.506;11.948;2023-04-15T07:59:31;16.98;;;12.57;;
7080;SDS011;3582;51.506;11.948;2023-04-15T08:01:57;15.05;;;11.05;;
7080;SDS011;3582;51.506;11.948;2023-04-15T08:04:23;16.70;;;13.40;;
7080;SDS011;3582;51.506;11.948;2023-04-15T08:06:50;15.95;;;12.57;;
7080;SDS011;3582;51.506;11.948;2023-04-15T08:09:16;14.70;;;12.73;;
7080;SDS011;3582;51.506;11.948;2023-04-15T08:11:42;16.77;;;14.40;;
7080;SDS011;3582;51.506;11.948;2023-04-15T08:14:08;21.83;;;16.33;;
7080;SDS011;3582;51.506;11.948;2023-04-15T08:16:34;17.95;;;14.88;;
7080;SDS011;3582;51.506;11.948;2023-04-15T08:19:01;17.45;;;14.27;;
7080;SDS011;3582;51.506;11.948;2023-04-15T08:21:27;18.13;;;13.30;;
7080;SDS011;3582;51.506;11.948;2023-04-15T08:23:54;20.95;;;14.25;;
7080;SDS011;3582;51.506;11.948;2023-04-15T08:26:20;20.60;;;15.20;;
7080;SDS011;3582;51.506;11.948;2023-04-15T08:28:47;20.17;;;15.13;;
7080;SDS011;3582;51.506;11.948;2023-04-15T08:31:13;20.17;;;16.15;;
7080;SDS011;3582;51.506;11.948;2023-04-15T08:33:40;20.23;;;15.73;;
7080;SDS011;3582;51.506;11.948;2023-04-15T08:36:06;22.15;;;16.25;;
7080;SDS011;3582;51.506;11.948;2023-04-15T08:38:32;33.70;;;22.20;;
7080;SDS011;3582;51.506;11.948;2023-04-15T08:41:02;26.17;;;17.58;;
7080;SDS011;3582;51.506;11.948;2023-04-15T08:43:33;21.38;;;18.20;;
7080;SDS011;3582;51.506;11.948;2023-04-15T08:45:59;25.85;;;17.92;;
7080;SDS011;3582;51.506;11.948;2023-04-15T08:48:31;26.83;;;18.52;;
7080;SDS011;3582;51.506;11.948;2023-04-15T08:50:59;24.35;;;18.25;;
7080;SDS011;3582;51.506;11.948;2023-04-15T08:53:26;27.30;;;18.58;;
7080;SDS011;3582;51.506;11.948;2023-04-15T08:55:53;30.98;;;21.50;;
7080;SDS011;3582;51.506;11.948;2023-04-15T08:58:21;29.92;;;19.00;;
7080;SDS011;3582;51.506;11.948;2023-04-15T09:00:48;30.05;;;21.13;;
7080;SDS011;3582;51.506;11.948;2023-04-15T09:03:14;28.25;;;21.90;;
7080;SDS011;3582;51.506;11.948;2023-04-15T09:05:41;35.13;;;22.00;;
7080;SDS011;3582;51.506;11.948;2023-04-15T09:08:07;32.08;;;21.38;;
7080;SDS011;3582;51.506;11.948;2023-04-15T09:10:33;35.00;;;24.45;;
7080;SDS011;3582;51.506;11.948;2023-04-15T09:13:00;35.67;;;24.30;;
7080;SDS011;3582;51.506;11.948;2023-04-15T09:15:26;33.33;;;22.23;;
7080;SDS011;3582;51.506;11.948;2023-04-15T09:17:54;35.65;;;22.52;;
7080;SDS011;3582;51.506;11.948;2023-04-15T09:20:20;32.63;;;22.98;;
7080;SDS011;3582;51.506;11.948;2023-04-15T09:22:47;35.92;;;24.75;;
7080;SDS011;3582;51.506;11.948;2023-04-15T09:27:52;37.17;;;25.55;;
7080;SDS011;3582;51.506;11.948;2023-04-15T09:30:19;36.40;;;24.20;;
7080;SDS011;3582;51.506;11.948;2023-04-15T09:32:51;37.25;;;25.92;;
7080;SDS011;3582;51.506;11.948;2023-04-15T09:35:18;41.35;;;26.45;;
7080;SDS011;3582;51.506;11.948;2023-04-15T09:37:45;39.30;;;25.42;;
7080;SDS011;3582;51.506;11.948;2023-04-15T09:40:11;45.90;;;28.65;;
7080;SDS011;3582;51.506;11.948;2023-04-15T09:42:58;46.95;;;30.45;;
7080;SDS011;3582;51.506;11.948;2023-04-15T09:45:23;48.70;;;28.40;;
7080;SDS011;3582;51.506;11.948;2023-04-15T09:47:49;44.85;;;27.67;;
7080;SDS011;3582;51.506;11.948;2023-04-15T09:50:16;65.07;;;33.58;;
7080;SDS011;3582;51.506;11.948;2023-04-15T09:52:43;54.15;;;33.38;;
7080;SDS011;3582;51.506;11.948;2023-04-15T09:55:09;54.53;;;33.33;;
7080;SDS011;3582;51.506;11.948;2023-04-15T09:57:36;59.72;;;32.95;;
7080;SDS011;3582;51.506;11.948;2023-04-15T10:00:02;57.35;;;33.97;;
7080;SDS011;3582;51.506;11.948;2023-04-15T10:02:29;63.40;;;36.47;;
7080;SDS011;3582;51.506;11.948;2023-04-15T10:04:55;64.40;;;36.88;;
7080;SDS011;3582;51.506;11.948;2023-04-15T10:07:21;52.88;;;33.92;;
7080;SDS011;3582;51.506;11.948;2023-04-15T10:09:48;64.93;;;35.60;;
7080;SDS011;3582;51.506;11.948;2023-04-15T10:12:17;58.35;;;34.47;;
7080;SDS011;3582;51.506;11.948;2023-04-15T10:14:43;63.88;;;37.03;;
7080;SDS011;3582;51.506;11.948;2023-04-15T10:17:11;68.65;;;39.65;;
7080;SDS011;3582;51.506;11.948;2023-04-15T10:19:37;68.22;;;39.00;;
7080;SDS011;3582;51.506;11.948;2023-04-15T10:22:03;67.53;;;38.50;;
7080;SDS011;3582;51.506;11.948;2023-04-15T10:24:30;74.38;;;40.10;;
7080;SDS011;3582;51.506;11.948;2023-04-15T10:26:56;70.95;;;39.88;;
7080;SDS011;3582;51.506;11.948;2023-04-15T10:29:23;76.90;;;41.20;;
7080;SDS011;3582;51.506;11.948;2023-04-15T10:31:51;65.13;;;40.00;;
7080;SDS011;3582;51.506;11.948;2023-04-15T10:34:18;71.32;;;42.58;;
7080;SDS011;3582;51.506;11.948;2023-04-15T10:36:44;92.70;;;46.23;;
7080;SDS011;3582;51.506;11.948;2023-04-15T10:39:37;76.18;;;44.42;;
7080;SDS011;3582;51.506;11.948;2023-04-15T10:42:07;74.80;;;47.30;;
7080;SDS011;3582;51.506;11.948;2023-04-15T10:44:34;80.80;;;46.33;;
7080;SDS011;3582;51.506;11.948;2023-04-15T10:47:03;87.30;;;49.03;;
7080;SDS011;3582;51.506;11.948;2023-04-15T10:49:30;91.32;;;50.97;;
7080;SDS011;3582;51.506;11.948;2023-04-15T10:51:56;89.07;;;46.83;;
7080;SDS011;3582;51.506;11.948;2023-04-15T10:57:05;79.20;;;48.38;;
7080;SDS011;3582;51.506;11.948;2023-04-15T10:59:33;85.15;;;47.30;;
7080;SDS011;3582;51.506;11.948;2023-04-15T11:02:01;85.57;;;50.30;;
7080;SDS011;3582;51.506;11.948;2023-04-15T11:07:51;84.45;;;51.17;;
7080;SDS011;3582;51.506;11.948;2023-04-15T11:13:13;81.28;;;46.95;;
7080;SDS011;3582;51.506;11.948;2023-04-15T11:15:41;80.90;;;46.55;;
7080;SDS011;3582;51.506;11.948;2023-04-15T11:18:09;82.82;;;48.63;;
7080;SDS011;3582;51.506;11.948;2023-04-15T11:20:36;83.05;;;48.83;;
7080;SDS011;3582;51.506;11.948;2023-04-15T11:23:02;75.70;;;48.42;;
7080;SDS011;3582;51.506;11.948;2023-04-15T11:25:29;68.22;;;47.08;;
7080;SDS011;3582;51.506;11.948;2023-04-15T11:27:55;68.57;;;45.45;;
7080;SDS011;3582;51.506;11.948;2023-04-15T11:30:23;69.47;;;45.42;;
7080;SDS011;3582;51.506;11.948;2023-04-15T11:32:50;75.35;;;45.78;;
7080;SDS011;3582;51.506;11.948;2023-04-15T11:35:16;71.40;;;46.22;;
7080;SDS011;3582;51.506;11.948;2023-04-15T11:37:43;64.88;;;44.88;;
7080;SDS011;3582;51.506;11.948;2023-04-15T11:40:09;64.70;;;43.58;;
7080;SDS011;3582;51.506;11.948;2023-04-15T11:42:35;64.90;;;46.40;;
7080;SDS011;3582;51.506;11.948;2023-04-15T11:45:05;62.90;;;44.70;;
7080;SDS011;3582;51.506;11.948;2023-04-15T11:47:31;57.75;;;42.80;;
7080;SDS011;3582;51.506;11.948;2023-04-15T11:50:12;63.17;;;43.90;;
7080;SDS011;3582;51.506;11.948;2023-04-15T11:52:38;63.08;;;43.25;;
7080;SDS011;3582;51.506;11.948;2023-04-15T11:55:05;53.08;;;40.78;;
7080;SDS011;3582;51.506;11.948;2023-04-15T11:57:33;53.85;;;42.67;;
7080;SDS011;3582;51.506;11.948;2023-04-15T11:59:59;58.38;;;41.17;;
7080;SDS011;3582;51.506;11.948;2023-04-15T12:02:35;48.42;;;36.53;;
7080;SDS011;3582;51.506;11.948;2023-04-15T12:05:04;53.22;;;39.08;;
7080;SDS011;3582;51.506;11.948;2023-04-15T12:07:30;52.95;;;43.63;;
7080;SDS011;3582;51.506;11.948;2023-04-15T12:09:57;47.70;;;37.40;;
7080;SDS011;3582;51.506;11.948;2023-04-15T12:12:27;46.45;;;35.97;;
7080;SDS011;3582;51.506;11.948;2023-04-15T12:14:53;41.83;;;34.70;;
7080;SDS011;3582;51.506;11.948;2023-04-15T12:17:21;45.42;;;34.83;;
7080;SDS011;3582;51.506;11.948;2023-04-15T12:19:48;39.20;;;32.65;;
7080;SDS011;3582;51.506;11.948;2023-04-15T12:22:15;35.42;;;30.20;;
7080;SDS011;3582;51.506;11.948;2023-04-15T12:24:41;36.25;;;31.50;;
7080;SDS011;3582;51.506;11.948;2023-04-15T12:27:12;35.30;;;31.42;;
7080;SDS011;3582;51.506;11.948;2023-04-15T12:29:38;32.80;;;28.60;;
7080;SDS011;3582;51.506;11.948;2023-04-15T12:32:14;32.15;;;28.73;;
7080;SDS011;3582;51.506;11.948;2023-04-15T12:34:42;37.42;;;29.60;;
7080;SDS011;3582;51.506;11.948;2023-04-15T12:37:09;29.05;;;25.98;;
7080;SDS011;3582;51.506;11.948;2023-04-15T12:39:40;29.35;;;24.83;;
7080;SDS011;3582;51.506;11.948;2023-04-15T12:42:06;31.55;;;27.75;;
7080;SDS011;3582;51.506;11.948;2023-04-15T12:44:32;28.98;;;26.02;;
7080;SDS011;3582;51.506;11.948;2023-04-15T12:46:58;26.65;;;23.75;;
7080;SDS011;3582;51.506;11.948;2023-04-15T12:49:25;27.42;;;24.08;;
7080;SDS011;3582;51.506;11.948;2023-04-15T12:51:52;28.10;;;25.08;;
7080;SDS011;3582;51.506;11.948;2023-04-15T12:54:18;28.38;;;24.23;;
7080;SDS011;3582;51.506;11.948;2023-04-15T12:56:45;27.67;;;24.83;;
7080;SDS011;3582;51.506;11.948;2023-04-15T12:59:12;25.05;;;22.55;;
7080;SDS011;3582;51.506;11.948;2023-04-15T13:01:38;27.25;;;24.30;;
7080;SDS011;3582;51.506;11.948;2023-04-15T13:04:05;26.88;;;24.00;;
7080;SDS011;3582;51.506;11.948;2023-04-15T13:06:31;26.33;;;23.63;;
7080;SDS011;3582;51.506;11.948;2023-04-15T13:09:00;29.77;;;26.60;;
7080;SDS011;3582;51.506;11.948;2023-04-15T13:11:27;26.97;;;24.23;;
7080;SDS011;3582;51.506;11.948;2023-04-15T13:13:55;29.53;;;25.20;;
7080;SDS011;3582;51.506;11.948;2023-04-15T13:16:21;26.90;;;24.17;;
7080;SDS011;3582;51.506;11.948;2023-04-15T13:18:47;25.88;;;23.17;;
7080;SDS011;3582;51.506;11.948;2023-04-15T13:21:13;27.90;;;25.05;;
7080;SDS011;3582;51.506;11.948;2023-04-15T13:23:40;24.40;;;21.80;;
7080;SDS011;3582;51.506;11.948;2023-04-15T13:26:06;29.73;;;25.88;;
7080;SDS011;3582;51.506;11.948;2023-04-15T13:28:32;22.03;;;19.93;;
7080;SDS011;3582;51.506;11.948;2023-04-15T13:30:59;21.95;;;19.63;;
7080;SDS011;3582;51.506;11.948;2023-04-15T13:33:25;22.73;;;20.30;;
7080;SDS011;3582;51.506;11.948;2023-04-15T13:35:51;20.37;;;18.33;;
7080;SDS011;3582;51.506;11.948;2023-04-15T13:38:17;20.77;;;18.63;;
7080;SDS011;3582;51.506;11.948;2023-04-15T13:40:43;21.40;;;18.70;;
7080;SDS011;3582;51.506;11.948;2023-04-15T13:43:09;18.48;;;16.65;;
7080;SDS011;3582;51.506;11.948;2023-04-15T13:45:35;18.25;;;16.55;;
7080;SDS011;3582;51.506;11.948;2023-04-15T13:48:01;17.93;;;16.10;;
7080;SDS011;3582;51.506;11.948;2023-04-15T13:50:27;16.98;;;15.35;;
7080;SDS011;3582;51.506;11.948;2023-04-15T13:52:53;19.17;;;17.17;;
7080;SDS011;3582;51.506;11.948;2023-04-15T13:55:19;20.77;;;18.77;;
7080;SDS011;3582;51.506;11.948;2023-04-15T13:57:45;21.10;;;19.00;;
7080;SDS011;3582;51.506;11.948;2023-04-15T14:00:11;21.50;;;19.45;;
7080;SDS011;3582;51.506;11.948;2023-04-15T14:02:38;21.70;;;19.65;;
7080;SDS011;3582;51.506;11.948;2023-04-15T14:05:04;22.02;;;19.83;;
7080;SDS011;3582;51.506;11.948;2023-04-15T14:07:30;19.55;;;17.52;;
7080;SDS011;3582;51.506;11.948;2023-04-15T14:09:56;20.48;;;18.35;;
7080;SDS011;3582;51.506;11.948;2023-04-15T14:12:22;19.63;;;17.77;;
7080;SDS011;3582;51.506;11.948;2023-04-15T14:14:48;20.63;;;18.33;;
7080;SDS011;3582;51.506;11.948;2023-04-15T14:17:14;20.73;;;18.65;;
7080;SDS011;3582;51.506;11.948;2023-04-15T14:19:40;19.40;;;17.38;;
7080;SDS011;3582;51.506;11.948;2023-04-15T14:22:06;20.27;;;18.30;;
7080;SDS011;3582;51.506;11.948;2023-04-15T14:24:32;20.03;;;18.03;;
7080;SDS011;3582;51.506;11.948;2023-04-15T14:26:58;21.83;;;19.43;;
7080;SDS011;3582;51.506;11.948;2023-04-15T14:29:26;20.92;;;18.83;;
7080;SDS011;3582;51.506;11.948;2023-04-15T14:31:52;23.70;;;21.15;;
7080;SDS011;3582;51.506;11.948;2023-04-15T14:34:18;20.30;;;18.30;;
7080;SDS011;3582;51.506;11.948;2023-04-15T14:36:46;21.30;;;19.08;;
7080;SDS011;3582;51.506;11.948;2023-04-15T14:39:12;25.38;;;22.13;;
7080;SDS011;3582;51.506;11.948;2023-04-15T14:41:38;20.23;;;18.33;;
7080;SDS011;3582;51.506;11.948;2023-04-15T14:44:04;18.48;;;16.00;;